sensor_id;sensor_type;location;lat;lon;timestamp;P1;durP1;ratioP1;P2;durP2;ratioP2
60243;SDS011;46106;51.468;5.814;2023-04-15T00:00:29;21.77;;;7.95;;
60243;SDS011;46106;51.468;5.814;2023-04-15T00:02:54;16.95;;;7.38;;
60243;SDS011;46106;51.468;5.814;2023-04-15T00:05:20;15.63;;;7.38;;
60243;SDS011;46106;51.468;5.814;2023-04-15T00:07:46;16.58;;;7.78;;
60243;SDS011;46106;51.468;5.814;2023-04-15T00:10:12;18.38;;;6.88;;
60243;SDS011;46106;51.468;5.814;2023-04-15T00:12:38;16.60;;;6.40;;
60243;SDS011;46106;51.468;5.814;2023-04-15T00:15:04;20.25;;;7.28;;
60243;SDS011;46106;51.468;5.814;2023-04-15T00:17:30;23.88;;;7.72;;
60243;SDS011;46106;51.468;5.814;2023-04-15T00:19:56;22.35;;;7.38;;
60243;SDS011;46106;51.468;5.814;2023-04-15T00:22:23;21.58;;;8.10;;
60243;SDS011;46106;51.468;5.814;2023-04-15T00:24:50;14.98;;;7.32;;
60243;SDS011;46106;51.468;5.814;2023-04-15T00:27:16;14.13;;;6.90;;
60243;SDS011;46106;51.468;5.814;2023-04-15T00:29:41;11.75;;;6.53;;
60243;SDS011;46106;51.468;5.814;2023-04-15T00:32:07;17.65;;;6.97;;
60243;SDS011;46106;51.468;5.814;2023-04-15T00:34:33;13.95;;;7.25;;
60243;SDS011;46106;51.468;5.814;2023-04-15T00:36:58;21.65;;;6.97;;
60243;SDS011;46106;51.468;5.814;2023-04-15T00:39:24;21.45;;;6.93;;
60243;SDS011;46106;51.468;5.814;2023-04-15T00:41:50;14.95;;;6.82;;
60243;SDS011;46106;51.468;5.814;2023-04-15T00:44:16;13.45;;;8.02;;
60243;SDS011;46106;51.468;5.814;2023-04-15T00:46:42;13.25;;;8.13;;
60243;SDS011;46106;51.468;5.814;2023-04-15T00:49:09;18.23;;;8.57;;
60243;SDS011;46106;51.468;5.814;2023-04-15T00:51:35;17.48;;;7.82;;
60243;SDS011;46106;51.468;5.814;2023-04-15T00:54:19;22.05;;;10.57;;
60243;SDS011;46106;51.468;5.814;2023-04-15T00:56:45;22.42;;;9.05;;
60243;SDS011;46106;51.468;5.814;2023-04-15T00:59:14;27.00;;;12.43;;
60243;SDS011;46106;51.468;5.814;2023-04-15T01:01:41;17.17;;;9.70;;
60243;SDS011;46106;51.468;5.814;2023-04-15T01:04:08;19.27;;;9.05;;
60243;SDS011;46106;51.468;5.814;2023-04-15T01:06:35;31.35;;;14.27;;
60243;SDS011;46106;51.468;5.814;2023-04-15T01:09:01;15.43;;;9.30;;
60243;SDS011;46106;51.468;5.814;2023-04-15T01:11:27;18.50;;;8.20;;
60243;SDS011;46106;51.468;5.814;2023-04-15T01:13:54;16.98;;;8.45;;
60243;SDS011;46106;51.468;5.814;2023-04-15T01:16:21;16.38;;;8.40;;
60243;SDS011;46106;51.468;5.814;2023-04-15T01:18:47;17.25;;;8.30;;
60243;SDS011;46106;51.468;5.814;2023-04-15T01:21:13;21.33;;;10.85;;
60243;SDS011;46106;51.468;5.814;2023-04-15T01:23:38;27.80;;;15.80;;
60243;SDS011;46106;51.468;5.814;2023-04-15T01:26:05;34.85;;;18.45;;
60243;SDS011;46106;51.468;5.814;2023-04-15T01:28:34;18.27;;;12.40;;
60243;SDS011;46106;51.468;5.814;2023-04-15T01:31:12;28.27;;;12.10;;
60243;SDS011;46106;51.468;5.814;2023-04-15T01:33:39;24.30;;;12.18;;
60243;SDS011;46106;51.468;5.814;2023-04-15T01:36:07;28.63;;;13.05;;
60243;SDS011;46106;51.468;5.814;2023-04-15T01:38:34;44.80;;;23.02;;
60243;SDS011;46106;51.468;5.814;2023-04-15T01:41:00;31.67;;;16.42;;
60243;SDS011;46106;51.468;5.814;2023-04-15T01:43:28;16.25;;;9.55;;
60243;SDS011;46106;51.468;5.814;2023-04-15T01:45:53;14.68;;;8.75;;
60243;SDS011;46106;51.468;5.814;2023-04-15T01:48:19;24.70;;;9.85;;
60243;SDS011;46106;51.468;5.814;2023-04-15T01:50:45;22.85;;;9.38;;
60243;SDS011;46106;51.468;5.814;2023-04-15T01:53:11;18.80;;;9.63;;
60243;SDS011;46106;51.468;5.814;2023-04-15T01:55:36;23.13;;;12.30;;
60243;SDS011;46106;51.468;5.814;2023-04-15T01:58:02;21.58;;;13.45;;
60243;SDS011;46106;51.468;5.814;2023-04-15T02:00:27;22.00;;;10.30;;
60243;SDS011;46106;51.468;5.814;2023-04-15T02:02:54;23.42;;;11.13;;
60243;SDS011;46106;51.468;5.814;2023-04-15T02:05:19;19.58;;;9.95;;
60243;SDS011;46106;51.468;5.814;2023-04-15T02:07:44;24.38;;;11.48;;
60243;SDS011;46106;51.468;5.814;2023-04-15T02:10:10;26.70;;;12.38;;
60243;SDS011;46106;51.468;5.814;2023-04-15T02:12:40;36.95;;;17.60;;
60243;SDS011;46106;51.468;5.814;2023-04-15T02:15:06;31.45;;;15.23;;
60243;SDS011;46106;51.468;5.814;2023-04-15T02:17:35;26.08;;;11.00;;
60243;SDS011;46106;51.468;5.814;2023-04-15T02:20:02;27.52;;;12.38;;
60243;SDS011;46106;51.468;5.814;2023-04-15T02:22:30;16.20;;;9.98;;
60243;SDS011;46106;51.468;5.814;2023-04-15T02:24:55;18.65;;;10.20;;
60243;SDS011;46106;51.468;5.814;2023-04-15T02:27:21;23.98;;;11.68;;
60243;SDS011;46106;51.468;5.814;2023-04-15T02:29:46;17.67;;;10.27;;
60243;SDS011;46106;51.468;5.814;2023-04-15T02:32:12;23.67;;;10.73;;
60243;SDS011;46106;51.468;5.814;2023-04-15T02:34:38;18.45;;;10.18;;
60243;SDS011;46106;51.468;5.814;2023-04-15T02:37:07;18.75;;;10.30;;
60243;SDS011;46106;51.468;5.814;2023-04-15T02:39:33;20.90;;;10.80;;
60243;SDS011;46106;51.468;5.814;2023-04-15T02:41:58;19.20;;;10.85;;
60243;SDS011;46106;51.468;5.814;2023-04-15T02:44:25;22.42;;;10.05;;
60243;SDS011;46106;51.468;5.814;2023-04-15T02:46:53;23.27;;;10.43;;
60243;SDS011;46106;51.468;5.814;2023-04-15T02:49:19;21.15;;;10.27;;
60243;SDS011;46106;51.468;5.814;2023-04-15T02:51:46;20.98;;;10.52;;
60243;SDS011;46106;51.468;5.814;2023-04-15T02:54:15;17.77;;;9.90;;
60243;SDS011;46106;51.468;5.814;2023-04-15T02:56:41;21.95;;;10.65;;
60243;SDS011;46106;51.468;5.814;2023-04-15T02:59:07;16.60;;;9.80;;
60243;SDS011;46106;51.468;5.814;2023-04-15T03:01:32;16.48;;;9.85;;
60243;SDS011;46106;51.468;5.814;2023-04-15T03:03:58;22.25;;;10.13;;
60243;SDS011;46106;51.468;5.814;2023-04-15T03:06:23;17.13;;;11.25;;
60243;SDS011;46106;51.468;5.814;2023-04-15T03:08:49;20.77;;;10.05;;
60243;SDS011;46106;51.468;5.814;2023-04-15T03:11:15;21.85;;;10.13;;
60243;SDS011;46106;51.468;5.814;2023-04-15T03:13:41;18.70;;;10.55;;
60243;SDS011;46106;51.468;5.814;2023-04-15T03:16:07;17.30;;;9.82;;
60243;SDS011;46106;51.468;5.814;2023-04-15T03:18:33;25.80;;;10.15;;
60243;SDS011;46106;51.468;5.814;2023-04-15T03:20:58;23.17;;;9.77;;
60243;SDS011;46106;51.468;5.814;2023-04-15T03:23:27;20.45;;;10.57;;
60243;SDS011;46106;51.468;5.814;2023-04-15T03:25:52;16.50;;;9.40;;
60243;SDS011;46106;51.468;5.814;2023-04-15T03:28:21;18.13;;;9.38;;
60243;SDS011;46106;51.468;5.814;2023-04-15T03:30:46;19.50;;;10.77;;
60243;SDS011;46106;51.468;5.814;2023-04-15T03:33:12;21.35;;;11.07;;
60243;SDS011;46106;51.468;5.814;2023-04-15T03:35:37;19.77;;;10.65;;
60243;SDS011;46106;51.468;5.814;2023-04-15T03:38:02;21.95;;;10.18;;
60243;SDS011;46106;51.468;5.814;2023-04-15T03:40:28;16.40;;;9.68;;
60243;SDS011;46106;51.468;5.814;2023-04-15T03:42:53;23.67;;;10.80;;
60243;SDS011;46106;51.468;5.814;2023-04-15T03:45:19;18.60;;;10.35;;
60243;SDS011;46106;51.468;5.814;2023-04-15T03:47:44;18.15;;;10.25;;
60243;SDS011;46106;51.468;5.814;2023-04-15T03:50:10;21.70;;;10.63;;
60243;SDS011;46106;51.468;5.814;2023-04-15T03:52:36;15.77;;;10.20;;
60243;SDS011;46106;51.468;5.814;2023-04-15T03:55:01;19.80;;;10.57;;
60243;SDS011;46106;51.468;5.814;2023-04-15T03:57:27;19.80;;;11.10;;
60243;SDS011;46106;51.468;5.814;2023-04-15T03:59:53;16.25;;;10.32;;
60243;SDS011;46106;51.468;5.814;2023-04-15T04:02:18;24.20;;;11.88;;
60243;SDS011;46106;51.468;5.814;2023-04-15T04:04:44;21.92;;;10.40;;
60243;SDS011;46106;51.468;5.814;2023-04-15T04:07:13;19.38;;;10.02;;
60243;SDS011;46106;51.468;5.814;2023-04-15T04:09:40;19.77;;;10.23;;
60243;SDS011;46106;51.468;5.814;2023-04-15T04:12:06;22.98;;;11.18;;
60243;SDS011;46106;51.468;5.814;2023-04-15T04:14:31;19.65;;;10.90;;
60243;SDS011;46106;51.468;5.814;2023-04-15T04:16:57;23.50;;;11.63;;
60243;SDS011;46106;51.468;5.814;2023-04-15T04:19:22;15.00;;;10.50;;
60243;SDS011;46106;51.468;5.814;2023-04-15T04:21:48;19.80;;;11.82;;
60243;SDS011;46106;51.468;5.814;2023-04-15T04:24:13;22.48;;;11.40;;
60243;SDS011;46106;51.468;5.814;2023-04-15T04:26:39;22.13;;;11.32;;
60243;SDS011;46106;51.468;5.814;2023-04-15T04:29:04;26.30;;;11.88;;
60243;SDS011;46106;51.468;5.814;2023-04-15T04:31:30;18.67;;;11.15;;
60243;SDS011;46106;51.468;5.814;2023-04-15T04:33:58;22.10;;;10.52;;
60243;SDS011;46106;51.468;5.814;2023-04-15T04:36:24;21.45;;;11.18;;
60243;SDS011;46106;51.468;5.814;2023-04-15T04:38:50;19.83;;;11.32;;
60243;SDS011;46106;51.468;5.814;2023-04-15T04:41:15;19.10;;;10.75;;
60243;SDS011;46106;51.468;5.814;2023-04-15T04:43:42;18.70;;;11.88;;
60243;SDS011;46106;51.468;5.814;2023-04-15T04:46:07;22.65;;;11.20;;
60243;SDS011;46106;51.468;5.814;2023-04-15T04:48:33;24.95;;;10.77;;
60243;SDS011;46106;51.468;5.814;2023-04-15T04:50:58;19.65;;;10.18;;
60243;SDS011;46106;51.468;5.814;2023-04-15T04:53:24;20.23;;;10.85;;
60243;SDS011;46106;51.468;5.814;2023-04-15T04:55:49;24.20;;;11.07;;
60243;SDS011;46106;51.468;5.814;2023-04-15T04:58:15;22.30;;;11.05;;
60243;SDS011;46106;51.468;5.814;2023-04-15T05:00:41;17.63;;;10.68;;
60243;SDS011;46106;51.468;5.814;2023-04-15T05:03:06;22.80;;;10.65;;
60243;SDS011;46106;51.468;5.814;2023-04-15T05:05:35;25.80;;;11.90;;
60243;SDS011;46106;51.468;5.814;2023-04-15T05:08:03;25.77;;;11.75;;
60243;SDS011;46106;51.468;5.814;2023-04-15T05:10:29;23.15;;;11.52;;
60243;SDS011;46106;51.468;5.814;2023-04-15T05:12:55;27.65;;;11.68;;
60243;SDS011;46106;51.468;5.814;2023-04-15T05:15:21;20.85;;;11.05;;
60243;SDS011;46106;51.468;5.814;2023-04-15T05:17:47;22.77;;;11.45;;
60243;SDS011;46106;51.468;5.814;2023-04-15T05:20:12;23.55;;;12.20;;
60243;SDS011;46106;51.468;5.814;2023-04-15T05:22:40;20.92;;;11.30;;
60243;SDS011;46106;51.468;5.814;2023-04-15T05:25:06;19.85;;;10.57;;
60243;SDS011;46106;51.468;5.814;2023-04-15T05:27:31;21.98;;;10.70;;
60243;SDS011;46106;51.468;5.814;2023-04-15T05:29:57;19.23;;;11.02;;
60243;SDS011;46106;51.468;5.814;2023-04-15T05:32:22;25.70;;;11.70;;
60243;SDS011;46106;51.468;5.814;2023-04-15T05:34:48;22.40;;;11.70;;
60243;SDS011;46106;51.468;5.814;2023-04-15T05:37:13;24.17;;;11.77;;
60243;SDS011;46106;51.468;5.814;2023-04-15T05:39:39;19.95;;;10.88;;
60243;SDS011;46106;51.468;5.814;2023-04-15T05:42:05;24.58;;;12.15;;
60243;SDS011;46106;51.468;5.814;2023-04-15T05:44:31;20.00;;;10.95;;
60243;SDS011;46106;51.468;5.814;2023-04-15T05:46:57;18.75;;;10.80;;
60243;SDS011;46106;51.468;5.814;2023-04-15T05:49:22;21.17;;;11.10;;
60243;SDS011;46106;51.468;5.814;2023-04-15T05:51:48;23.10;;;11.30;;
60243;SDS011;46106;51.468;5.814;2023-04-15T05:54:13;19.33;;;11.05;;
60243;SDS011;46106;51.468;5.814;2023-04-15T05:56:39;20.55;;;11.07;;
60243;SDS011;46106;51.468;5.814;2023-04-15T05:59:04;19.80;;;12.05;;
60243;SDS011;46106;51.468;5.814;2023-04-15T06:01:30;17.27;;;10.18;;
60243;SDS011;46106;51.468;5.814;2023-04-15T06:03:57;25.30;;;11.95;;
60243;SDS011;46106;51.468;5.814;2023-04-15T06:06:23;21.15;;;12.00;;
60243;SDS011;46106;51.468;5.814;2023-04-15T06:08:48;27.63;;;12.98;;
60243;SDS011;46106;51.468;5.814;2023-04-15T06:11:13;20.15;;;11.88;;
60243;SDS011;46106;51.468;5.814;2023-04-15T06:13:39;19.33;;;12.10;;
60243;SDS011;46106;51.468;5.814;2023-04-15T06:16:05;20.30;;;11.55;;
60243;SDS011;46106;51.468;5.814;2023-04-15T06:18:32;20.60;;;11.57;;
60243;SDS011;46106;51.468;5.814;2023-04-15T06:20:57;21.25;;;12.25;;
60243;SDS011;46106;51.468;5.814;2023-04-15T06:23:23;23.55;;;11.57;;
60243;SDS011;46106;51.468;5.814;2023-04-15T06:25:48;18.48;;;10.52;;
60243;SDS011;46106;51.468;5.814;2023-04-15T06:28:14;22.10;;;12.02;;
60243;SDS011;46106;51.468;5.814;2023-04-15T06:30:40;23.17;;;11.05;;
60243;SDS011;46106;51.468;5.814;2023-04-15T06:33:05;18.58;;;11.20;;
60243;SDS011;46106;51.468;5.814;2023-04-15T06:35:31;19.88;;;11.18;;
60243;SDS011;46106;51.468;5.814;2023-04-15T06:37:56;17.05;;;10.48;;
60243;SDS011;46106;51.468;5.814;2023-04-15T06:40:22;17.27;;;10.98;;
60243;SDS011;46106;51.468;5.814;2023-04-15T06:42:48;20.13;;;10.88;;
60243;SDS011;46106;51.468;5.814;2023-04-15T06:45:13;18.67;;;10.98;;
60243;SDS011;46106;51.468;5.814;2023-04-15T06:47:39;16.58;;;9.68;;
60243;SDS011;46106;51.468;5.814;2023-04-15T06:50:05;17.88;;;9.35;;
60243;SDS011;46106;51.468;5.814;2023-04-15T06:52:31;18.90;;;9.63;;
60243;SDS011;46106;51.468;5.814;2023-04-15T06:54:57;22.05;;;10.75;;
60243;SDS011;46106;51.468;5.814;2023-04-15T06:57:23;17.70;;;9.32;;
60243;SDS011;46106;51.468;5.814;2023-04-15T06:59:49;20.73;;;10.07;;
60243;SDS011;46106;51.468;5.814;2023-04-15T07:02:15;18.90;;;9.52;;
60243;SDS011;46106;51.468;5.814;2023-04-15T07:04:41;14.02;;;9.40;;
60243;SDS011;46106;51.468;5.814;2023-04-15T07:07:06;15.40;;;8.98;;
60243;SDS011;46106;51.468;5.814;2023-04-15T07:09:34;15.70;;;9.85;;
60243;SDS011;46106;51.468;5.814;2023-04-15T07:12:00;15.80;;;9.43;;
60243;SDS011;46106;51.468;5.814;2023-04-15T07:14:25;14.65;;;8.68;;
60243;SDS011;46106;51.468;5.814;2023-04-15T07:16:51;18.67;;;10.55;;
60243;SDS011;46106;51.468;5.814;2023-04-15T07:19:17;16.33;;;9.63;;
60243;SDS011;46106;51.468;5.814;2023-04-15T07:21:42;15.35;;;10.23;;
60243;SDS011;46106;51.468;5.814;2023-04-15T07:24:08;19.08;;;10.50;;
60243;SDS011;46106;51.468;5.814;2023-04-15T07:26:34;14.73;;;10.32;;
60243;SDS011;46106;51.468;5.814;2023-04-15T07:29:00;16.90;;;9.52;;
60243;SDS011;46106;51.468;5.814;2023-04-15T07:31:28;12.88;;;8.90;;
60243;SDS011;46106;51.468;5.814;2023-04-15T07:33:53;17.17;;;9.82;;
60243;SDS011;46106;51.468;5.814;2023-04-15T07:36:19;16.60;;;10.48;;
60243;SDS011;46106;51.468;5.814;2023-04-15T07:38:44;15.80;;;10.15;;
60243;SDS011;46106;51.468;5.814;2023-04-15T07:41:10;17.35;;;9.60;;
60243;SDS011;46106;51.468;5.814;2023-04-15T07:43:35;14.45;;;9.48;;
60243;SDS011;46106;51.468;5.814;2023-04-15T07:46:01;15.93;;;8.98;;
60243;SDS011;46106;51.468;5.814;2023-04-15T07:48:26;12.82;;;8.15;;
60243;SDS011;46106;51.468;5.814;2023-04-15T07:50:52;12.55;;;8.75;;
60243;SDS011;46106;51.468;5.814;2023-04-15T07:53:17;13.38;;;8.80;;
60243;SDS011;46106;51.468;5.814;2023-04-15T07:55:43;12.05;;;7.75;;
60243;SDS011;46106;51.468;5.814;2023-04-15T07:58:08;11.82;;;8.35;;
60243;SDS011;46106;51.468;5.814;2023-04-15T08:00:34;13.10;;;7.50;;
60243;SDS011;46106;51.468;5.814;2023-04-15T08:03:03;10.63;;;7.93;;
60243;SDS011;46106;51.468;5.814;2023-04-15T08:05:28;12.95;;;8.40;;
60243;SDS011;46106;51.468;5.814;2023-04-15T08:07:54;17.65;;;9.00;;
60243;SDS011;46106;51.468;5.814;2023-04-15T08:10:20;12.77;;;8.75;;
60243;SDS011;46106;51.468;5.814;2023-04-15T08:12:46;15.13;;;8.80;;
60243;SDS011;46106;51.468;5.814;2023-04-15T08:15:13;11.05;;;7.72;;
60243;SDS011;46106;51.468;5.814;2023-04-15T08:17:39;13.27;;;7.22;;
60243;SDS011;46106;51.468;5.814;2023-04-15T08:20:04;12.25;;;7.18;;
60243;SDS011;46106;51.468;5.814;2023-04-15T08:22:30;12.95;;;7.70;;
60243;SDS011;46106;51.468;5.814;2023-04-15T08:24:56;12.57;;;8.68;;
60243;SDS011;46106;51.468;5.814;2023-04-15T08:27:22;15.23;;;8.00;;
60243;SDS011;46106;51.468;5.814;2023-04-15T08:29:47;14.98;;;8.55;;
60243;SDS011;46106;51.468;5.814;2023-04-15T08:32:12;11.25;;;7.20;;
60243;SDS011;46106;51.468;5.814;2023-04-15T08:34:38;15.38;;;7.22;;
60243;SDS011;46106;51.468;5.814;2023-04-15T08:37:04;12.30;;;7.10;;
60243;SDS011;46106;51.468;5.814;2023-04-15T08:39:30;12.20;;;6.82;;
60243;SDS011;46106;51.468;5.814;2023-04-15T08:42:02;12.25;;;6.88;;
60243;SDS011;46106;51.468;5.814;2023-04-15T08:44:33;12.48;;;7.28;;
60243;SDS011;46106;51.468;5.814;2023-04-15T08:47:00;11.07;;;6.18;;
60243;SDS011;46106;51.468;5.814;2023-04-15T08:49:29;10.82;;;6.30;;
60243;SDS011;46106;51.468;5.814;2023-04-15T08:51:59;11.27;;;6.43;;
60243;SDS011;46106;51.468;5.814;2023-04-15T08:54:28;10.60;;;6.22;;
60243;SDS011;46106;51.468;5.814;2023-04-15T08:56:54;10.77;;;5.57;;
60243;SDS011;46106;51.468;5.814;2023-04-15T08:59:23;8.35;;;4.85;;
60243;SDS011;46106;51.468;5.814;2023-04-15T09:01:49;10.35;;;5.95;;
60243;SDS011;46106;51.468;5.814;2023-04-15T09:04:17;9.50;;;5.40;;
60243;SDS011;46106;51.468;5.814;2023-04-15T09:06:43;9.15;;;5.53;;
60243;SDS011;46106;51.468;5.814;2023-04-15T09:09:09;9.10;;;5.60;;
60243;SDS011;46106;51.468;5.814;2023-04-15T09:11:34;14.00;;;5.70;;
60243;SDS011;46106;51.468;5.814;2023-04-15T09:14:00;10.30;;;4.70;;
60243;SDS011;46106;51.468;5.814;2023-04-15T09:16:26;9.93;;;4.40;;
60243;SDS011;46106;51.468;5.814;2023-04-15T09:18:52;8.02;;;4.75;;
60243;SDS011;46106;51.468;5.814;2023-04-15T09:21:18;7.50;;;4.70;;
60243;SDS011;46106;51.468;5.814;2023-04-15T09:23:57;9.02;;;6.22;;
60243;SDS011;46106;51.468;5.814;2023-04-15T09:26:33;9.35;;;5.72;;
60243;SDS011;46106;51.468;5.814;2023-04-15T09:29:08;10.52;;;6.65;;
60243;SDS011;46106;51.468;5.814;2023-04-15T09:31:37;12.65;;;6.28;;
60243;SDS011;46106;51.468;5.814;2023-04-15T09:34:04;11.90;;;7.13;;
60243;SDS011;46106;51.468;5.814;2023-04-15T09:39:11;10.23;;;6.10;;
60243;SDS011;46106;51.468;5.814;2023-04-15T09:41:38;9.70;;;6.93;;
60243;SDS011;46106;51.468;5.814;2023-04-15T09:44:04;6.20;;;4.57;;
60243;SDS011;46106;51.468;5.814;2023-04-15T09:46:43;8.75;;;4.68;;
60243;SDS011;46106;51.468;5.814;2023-04-15T09:49:09;4.82;;;4.15;;
60243;SDS011;46106;51.468;5.814;2023-04-15T09:51:36;7.90;;;4.38;;
60243;SDS011;46106;51.468;5.814;2023-04-15T09:54:02;5.18;;;3.45;;
60243;SDS011;46106;51.468;5.814;2023-04-15T09:56:35;6.78;;;3.63;;
60243;SDS011;46106;51.468;5.814;2023-04-15T09:59:07;6.57;;;3.83;;
60243;SDS011;46106;51.468;5.814;2023-04-15T10:01:33;6.00;;;3.97;;
60243;SDS011;46106;51.468;5.814;2023-04-15T10:04:00;6.80;;;4.30;;
60243;SDS011;46106;51.468;5.814;2023-04-15T10:06:27;5.28;;;3.58;;
60243;SDS011;46106;51.468;5.814;2023-04-15T10:08:54;6.35;;;4.15;;
60243;SDS011;46106;51.468;5.814;2023-04-15T10:11:25;4.25;;;2.95;;
60243;SDS011;46106;51.468;5.814;2023-04-15T10:13:53;4.75;;;3.78;;
60243;SDS011;46106;51.468;5.814;2023-04-15T10:16:20;7.10;;;3.80;;
60243;SDS011;46106;51.468;5.814;2023-04-15T10:18:49;6.53;;;4.57;;
60243;SDS011;46106;51.468;5.814;2023-04-15T10:21:18;5.85;;;3.85;;
60243;SDS011;46106;51.468;5.814;2023-04-15T10:23:46;6.05;;;3.38;;
60243;SDS011;46106;51.468;5.814;2023-04-15T10:26:12;6.40;;;4.40;;
60243;SDS011;46106;51.468;5.814;2023-04-15T10:28:42;7.35;;;4.60;;
60243;SDS011;46106;51.468;5.814;2023-04-15T10:31:08;6.85;;;4.55;;
60243;SDS011;46106;51.468;5.814;2023-04-15T10:33:39;7.95;;;4.28;;
60243;SDS011;46106;51.468;5.814;2023-04-15T10:36:06;4.45;;;3.63;;
60243;SDS011;46106;51.468;5.814;2023-04-15T10:46:18;6.00;;;4.13;;
60243;SDS011;46106;51.468;5.814;2023-04-15T10:48:46;5.65;;;3.70;;
60243;SDS011;46106;51.468;5.814;2023-04-15T10:51:15;6.10;;;3.90;;
60243;SDS011;46106;51.468;5.814;2023-04-15T10:53:41;4.95;;;3.65;;
60243;SDS011;46106;51.468;5.814;2023-04-15T10:56:08;5.10;;;3.38;;
60243;SDS011;46106;51.468;5.814;2023-04-15T10:58:41;3.90;;;3.10;;
60243;SDS011;46106;51.468;5.814;2023-04-15T11:01:07;3.85;;;2.55;;
60243;SDS011;46106;51.468;5.814;2023-04-15T11:03:36;4.68;;;2.90;;
60243;SDS011;46106;51.468;5.814;2023-04-15T11:06:04;5.07;;;3.10;;
60243;SDS011;46106;51.468;5.814;2023-04-15T11:11:20;4.85;;;2.80;;
60243;SDS011;46106;51.468;5.814;2023-04-15T11:13:46;3.78;;;2.90;;
60243;SDS011;46106;51.468;5.814;2023-04-15T11:16:15;7.00;;;3.45;;
60243;SDS011;46106;51.468;5.814;2023-04-15T11:18:41;3.78;;;2.83;;
60243;SDS011;46106;51.468;5.814;2023-04-15T11:21:07;7.90;;;3.15;;
60243;SDS011;46106;51.468;5.814;2023-04-15T11:23:34;5.10;;;3.35;;
60243;SDS011;46106;51.468;5.814;2023-04-15T11:26:06;4.47;;;3.15;;
60243;SDS011;46106;51.468;5.814;2023-04-15T11:28:41;5.18;;;3.78;;
60243;SDS011;46106;51.468;5.814;2023-04-15T11:31:12;6.28;;;3.92;;
60243;SDS011;46106;51.468;5.814;2023-04-15T11:33:44;5.43;;;3.60;;
60243;SDS011;46106;51.468;5.814;2023-04-15T11:36:23;6.68;;;3.75;;
60243;SDS011;46106;51.468;5.814;2023-04-15T11:38:53;7.05;;;3.88;;
60243;SDS011;46106;51.468;5.814;2023-04-15T11:41:22;5.50;;;3.67;;
60243;SDS011;46106;51.468;5.814;2023-04-15T11:43:49;10.68;;;4.60;;
60243;SDS011;46106;51.468;5.814;2023-04-15T11:46:15;7.00;;;4.05;;
60243;SDS011;46106;51.468;5.814;2023-04-15T11:48:45;8.88;;;4.25;;
60243;SDS011;46106;51.468;5.814;2023-04-15T11:51:14;6.60;;;4.03;;
60243;SDS011;46106;51.468;5.814;2023-04-15T11:56:19;5.60;;;4.20;;
60243;SDS011;46106;51.468;5.814;2023-04-15T11:58:46;6.07;;;4.00;;
60243;SDS011;46106;51.468;5.814;2023-04-15T12:01:14;4.10;;;3.10;;
60243;SDS011;46106;51.468;5.814;2023-04-15T12:03:41;3.90;;;3.35;;
60243;SDS011;46106;51.468;5.814;2023-04-15T12:06:17;4.07;;;3.08;;
60243;SDS011;46106;51.468;5.814;2023-04-15T12:09:06;5.40;;;3.55;;
60243;SDS011;46106;51.468;5.814;2023-04-15T12:11:49;3.17;;;2.38;;
60243;SDS011;46106;51.468;5.814;2023-04-15T12:14:26;6.47;;;3.50;;
60243;SDS011;46106;51.468;5.814;2023-04-15T12:16:53;6.55;;;3.30;;
60243;SDS011;46106;51.468;5.814;2023-04-15T12:19:28;6.75;;;3.17;;
60243;SDS011;46106;51.468;5.814;2023-04-15T12:21:58;5.78;;;2.70;;
60243;SDS011;46106;51.468;5.814;2023-04-15T12:24:25;4.68;;;2.75;;
60243;SDS011;46106;51.468;5.814;2023-04-15T12:26:52;3.83;;;2.38;;
60243;SDS011;46106;51.468;5.814;2023-04-15T12:29:19;2.67;;;2.30;;
60243;SDS011;46106;51.468;5.814;2023-04-15T12:34:25;4.68;;;2.80;;
60243;SDS011;46106;51.468;5.814;2023-04-15T12:36:52;5.00;;;2.53;;
60243;SDS011;46106;51.468;5.814;2023-04-15T12:39:20;3.60;;;2.25;;
60243;SDS011;46106;51.468;5.814;2023-04-15T12:41:47;4.45;;;2.30;;
60243;SDS011;46106;51.468;5.814;2023-04-15T12:44:12;4.95;;;2.97;;
60243;SDS011;46106;51.468;5.814;2023-04-15T12:46:38;3.28;;;2.30;;
60243;SDS011;46106;51.468;5.814;2023-04-15T12:49:03;4.70;;;2.25;;
60243;SDS011;46106;51.468;5.814;2023-04-15T12:51:28;6.40;;;2.70;;
60243;SDS011;46106;51.468;5.814;2023-04-15T12:53:55;4.38;;;2.80;;
60243;SDS011;46106;51.468;5.814;2023-04-15T12:56:21;2.58;;;2.20;;
60243;SDS011;46106;51.468;5.814;2023-04-15T12:58:47;4.10;;;1.88;;
60243;SDS011;46106;51.468;5.814;2023-04-15T13:01:13;3.00;;;2.13;;
60243;SDS011;46106;51.468;5.814;2023-04-15T13:03:39;2.92;;;1.92;;
60243;SDS011;46106;51.468;5.814;2023-04-15T13:06:04;5.13;;;2.15;;
60243;SDS011;46106;51.468;5.814;2023-04-15T13:08:30;2.40;;;1.80;;
60243;SDS011;46106;51.468;5.814;2023-04-15T13:10:56;4.93;;;2.10;;
60243;SDS011;46106;51.468;5.814;2023-04-15T13:13:21;4.55;;;2.28;;
60243;SDS011;46106;51.468;5.814;2023-04-15T13:15:47;5.93;;;1.80;;
60243;SDS011;46106;51.468;5.814;2023-04-15T13:18:12;3.05;;;2.38;;
60243;SDS011;46106;51.468;5.814;2023-04-15T13:20:38;2.90;;;1.50;;
60243;SDS011;46106;51.468;5.814;2023-04-15T13:23:03;1.70;;;1.33;;
60243;SDS011;46106;51.468;5.814;2023-04-15T13:25:29;3.00;;;1.35;;
60243;SDS011;46106;51.468;5.814;2023-04-15T13:27:56;2.53;;;1.25;;
60243;SDS011;46106;51.468;5.814;2023-04-15T13:30:21;1.55;;;1.45;;
60243;SDS011;46106;51.468;5.814;2023-04-15T13:32:48;3.17;;;2.03;;
60243;SDS011;46106;51.468;5.814;2023-04-15T13:35:13;2.55;;;2.35;;
60243;SDS011;46106;51.468;5.814;2023-04-15T13:37:39;2.63;;;1.30;;
60243;SDS011;46106;51.468;5.814;2023-04-15T13:40:05;1.17;;;1.00;;
60243;SDS011;46106;51.468;5.814;2023-04-15T13:42:31;4.65;;;1.27;;
60243;SDS011;46106;51.468;5.814;2023-04-15T13:44:57;2.83;;;1.50;;
60243;SDS011;46106;51.468;5.814;2023-04-15T13:47:22;3.55;;;1.45;;
60243;SDS011;46106;51.468;5.814;2023-04-15T13:49:48;2.13;;;1.30;;
60243;SDS011;46106;51.468;5.814;2023-04-15T13:52:13;3.63;;;1.42;;
60243;SDS011;46106;51.468;5.814;2023-04-15T13:54:39;2.50;;;1.38;;
60243;SDS011;46106;51.468;5.814;2023-04-15T13:57:06;2.83;;;1.92;;
60243;SDS011;46106;51.468;5.814;2023-04-15T13:59:34;3.30;;;1.83;;
60243;SDS011;46106;51.468;5.814;2023-04-15T14:02:03;1.55;;;1.45;;
60243;SDS011;46106;51.468;5.814;2023-04-15T14:04:30;3.80;;;2.20;;
60243;SDS011;46106;51.468;5.814;2023-04-15T14:06:56;4.00;;;2.10;;
60243;SDS011;46106;51.468;5.814;2023-04-15T14:09:21;6.15;;;2.58;;
60243;SDS011;46106;51.468;5.814;2023-04-15T14:11:48;6.50;;;2.53;;
60243;SDS011;46106;51.468;5.814;2023-04-15T14:14:14;2.63;;;2.00;;
60243;SDS011;46106;51.468;5.814;2023-04-15T14:16:40;5.30;;;2.67;;
60243;SDS011;46106;51.468;5.814;2023-04-15T14:19:05;3.95;;;2.85;;
60243;SDS011;46106;51.468;5.814;2023-04-15T14:21:30;6.38;;;2.28;;
60243;SDS011;46106;51.468;5.814;2023-04-15T14:23:56;3.83;;;2.17;;
60243;SDS011;46106;51.468;5.814;2023-04-15T14:26:22;3.72;;;1.90;;
60243;SDS011;46106;51.468;5.814;2023-04-15T14:28:48;5.78;;;1.80;;
60243;SDS011;46106;51.468;5.814;2023-04-15T14:31:14;2.60;;;1.30;;
60243;SDS011;46106;51.468;5.814;2023-04-15T14:33:39;1.65;;;1.23;;
60243;SDS011;46106;51.468;5.814;2023-04-15T14:36:05;6.95;;;1.50;;
60243;SDS011;46106;51.468;5.814;2023-04-15T14:38:34;3.38;;;1.40;;
60243;SDS011;46106;51.468;5.814;2023-04-15T14:41:04;1.92;;;1.40;;
60243;SDS011;46106;51.468;5.814;2023-04-15T14:43:30;3.33;;;1.20;;
60243;SDS011;46106;51.468;5.814;2023-04-15T14:45:56;5.53;;;1.30;;
60243;SDS011;46106;51.468;5.814;2023-04-15T14:48:21;5.10;;;2.10;;